createdAt,value
2019-04-23T00:00:03.720Z,15.95
2019-04-23T00:02:35.732Z,16.04
2019-04-23T00:05:27.144Z,15.98
2019-04-23T00:10:28.616Z,16.08
2019-04-23T00:12:59.196Z,15.93
2019-04-23T00:15:40.636Z,15.91
2019-04-23T00:18:22.730Z,16.06
2019-04-23T00:20:57.701Z,15.93
2019-04-23T00:23:35.040Z,15.93
2019-04-23T00:26:17.755Z,15.86
2019-04-23T00:28:42.235Z,15.92
2019-04-23T00:31:18.447Z,15.93
2019-04-23T00:33:49.597Z,15.89
2019-04-23T00:36:32.163Z,15.77
2019-04-23T00:39:17.301Z,15.73
2019-04-23T00:41:36.636Z,15.71
2019-04-23T00:44:21.251Z,15.60
2019-04-23T00:46:48.576Z,15.64
2019-04-23T00:49:29.030Z,15.56
2019-04-23T00:52:04.158Z,15.44
2019-04-23T00:54:35.622Z,15.46
2019-04-23T00:59:53.746Z,15.57
2019-04-23T01:02:26.339Z,15.59
2019-04-23T01:04:58.401Z,15.44
2019-04-23T01:07:33.562Z,15.46
2019-04-23T01:10:20.551Z,15.27
2019-04-23T01:15:37.169Z,15.50
2019-04-23T01:18:10.977Z,15.39
2019-04-23T01:20:55.156Z,15.28
2019-04-23T01:23:11.585Z,15.21
2019-04-23T01:25:58.147Z,15.19
2019-04-23T01:28:50.285Z,15.03
2019-04-23T01:31:23.290Z,15.18
2019-04-23T01:33:55.542Z,15.13
2019-04-23T01:36:33.045Z,15.12
2019-04-23T01:39:11.681Z,15.02
2019-04-23T01:41:47.832Z,15.01
2019-04-23T01:44:27.827Z,14.98
2019-04-23T01:46:54.226Z,14.86
2019-04-23T01:49:37.591Z,14.96
2019-04-23T01:52:08.317Z,14.84
2019-04-23T01:54:40.698Z,14.93
2019-04-23T01:57:18.051Z,14.93
2019-04-23T01:59:56.604Z,14.92
2019-04-23T02:02:26.457Z,14.85
2019-04-23T02:05:14.133Z,14.86
2019-04-23T02:07:44.115Z,14.61
2019-04-23T02:10:21.653Z,14.63
2019-04-23T02:12:56.824Z,14.77
2019-04-23T02:15:23.168Z,14.65
2019-04-23T02:18:06.609Z,14.49
2019-04-23T02:20:39.833Z,14.74
2019-04-23T02:23:21.603Z,14.68
2019-04-23T02:25:50.825Z,14.63
2019-04-23T02:28:28.660Z,14.50
2019-04-23T02:31:43.725Z,14.43
2019-04-23T02:33:45.057Z,14.31
2019-04-23T02:41:34.645Z,14.46
2019-04-23T02:44:11.662Z,14.45
2019-04-23T02:46:40.914Z,14.44
2019-04-23T02:51:53.694Z,14.36
2019-04-23T02:54:38.177Z,14.35
2019-04-23T02:56:59.121Z,14.34
2019-04-23T03:02:36.730Z,14.57
2019-04-23T03:04:57.069Z,14.25
2019-04-23T03:07:41.046Z,14.15
2019-04-23T03:10:10.144Z,13.95
2019-04-23T03:12:48.977Z,13.80
2019-04-23T03:15:28.332Z,14.13
2019-04-23T03:24:11.302Z,13.85
2019-04-23T03:27:03.587Z,14.12
2019-04-23T03:29:21.844Z,13.98
2019-04-23T03:39:52.433Z,14.07
2019-04-23T03:44:53.380Z,13.88
2019-04-23T03:47:24.939Z,13.63
2019-04-23T03:50:05.346Z,13.79
2019-04-23T03:52:35.478Z,13.77
2019-04-23T03:55:32.750Z,13.67
2019-04-23T04:00:31.108Z,13.52
2019-04-23T04:03:01.263Z,13.82
2019-04-23T04:05:36.004Z,13.74
2019-04-23T04:08:13.266Z,13.69
2019-04-23T04:13:22.802Z,13.60
2019-04-23T04:15:55.402Z,13.62
2019-04-23T04:18:37.891Z,13.52
2019-04-23T04:23:45.363Z,13.50
2019-04-23T04:26:13.848Z,13.32
2019-04-23T04:28:54.873Z,13.44
2019-04-23T04:31:34.733Z,13.62
2019-04-23T04:36:45.030Z,13.44
2019-04-23T04:38:58.995Z,13.41
2019-04-23T04:41:55.565Z,13.40
2019-04-23T04:46:54.914Z,13.35
2019-04-23T04:49:34.251Z,13.33
2019-04-23T04:54:30.842Z,13.52
2019-04-23T04:57:20.511Z,13.49
2019-04-23T05:02:53.115Z,13.27
2019-04-23T05:10:16.586Z,13.27
2019-04-23T05:15:18.835Z,13.47
2019-04-23T05:18:19.601Z,13.57
2019-04-23T05:20:56.410Z,13.59
2019-04-23T05:26:02.868Z,13.56
2019-04-23T05:28:38.772Z,13.68
2019-04-23T05:31:05.797Z,13.66
2019-04-23T05:33:47.860Z,13.68
2019-04-23T05:36:33.912Z,13.64
2019-04-23T05:39:00.877Z,13.70
2019-04-23T05:41:42.096Z,13.73
2019-04-23T05:44:12.121Z,13.86
2019-04-23T05:46:40.218Z,13.85
2019-04-23T05:49:11.010Z,13.77
2019-04-23T05:52:17.811Z,13.80
2019-04-23T05:54:30.046Z,13.80
2019-04-23T05:56:55.138Z,13.94
2019-04-23T05:59:46.861Z,14.01
2019-04-23T06:02:26.198Z,14.00
2019-04-23T06:04:42.266Z,13.95
2019-04-23T06:07:28.995Z,14.24
2019-04-23T06:10:02.929Z,14.16
2019-04-23T06:12:34.832Z,14.33
2019-04-23T06:18:02.068Z,14.35
2019-04-23T06:20:28.781Z,14.31
2019-04-23T06:22:56.292Z,14.37
2019-04-23T06:28:09.754Z,14.29
2019-04-23T06:30:53.030Z,14.45
2019-04-23T06:33:23.935Z,14.42
2019-04-23T06:35:50.485Z,14.40
2019-04-23T06:38:40.790Z,14.45
2019-04-23T06:41:13.195Z,14.47
2019-04-23T06:43:56.428Z,14.80
2019-04-23T06:46:28.256Z,14.40
2019-04-23T06:49:02.044Z,14.67
2019-04-23T06:51:47.541Z,14.57
2019-04-23T06:54:12.286Z,14.78
2019-04-23T06:56:52.981Z,14.73
2019-04-23T07:04:34.563Z,15.01
2019-04-23T07:09:41.846Z,15.20
2019-04-23T07:12:25.819Z,15.09
2019-04-23T07:14:59.610Z,15.32
2019-04-23T07:17:24.867Z,15.50
2019-04-23T07:20:04.893Z,15.55
2019-04-23T07:22:41.321Z,15.51
2019-04-23T07:25:17.537Z,15.29
2019-04-23T07:27:51.130Z,15.56
2019-04-23T07:30:29.726Z,15.22
2019-04-23T07:33:05.614Z,15.46
2019-04-23T07:35:47.918Z,15.45
2019-04-23T07:38:48.136Z,15.91
2019-04-23T07:41:37.822Z,15.58
2019-04-23T07:44:24.866Z,15.39
2019-04-23T07:47:19.435Z,15.39
2019-04-23T07:49:50.518Z,15.93
2019-04-23T07:54:54.379Z,16.11
2019-04-23T07:57:26.858Z,16.36
2019-04-23T08:00:15.866Z,16.34
2019-04-23T08:02:34.567Z,16.07
2019-04-23T08:05:22.464Z,16.29
2019-04-23T08:07:53.019Z,16.49
2019-04-23T08:10:34.347Z,16.27
2019-04-23T08:12:58.492Z,16.09
2019-04-23T08:15:34.692Z,16.12
2019-04-23T08:18:16.107Z,16.40
2019-04-23T08:20:49.043Z,16.48
2019-04-23T08:23:34.880Z,16.93
2019-04-23T08:26:26.727Z,16.76
2019-04-23T08:29:12.292Z,16.54
2019-04-23T08:31:32.061Z,16.62
2019-04-23T08:34:19.814Z,16.71
2019-04-23T08:36:44.383Z,16.95
2019-04-23T08:39:32.324Z,17.36
2019-04-23T08:44:39.534Z,17.35
2019-04-23T08:47:15.828Z,17.54
2019-04-23T08:49:40.403Z,17.61
2019-04-23T08:54:58.055Z,16.82
2019-04-23T08:59:59.277Z,17.04
2019-04-23T09:02:55.133Z,17.40
2019-04-23T09:05:14.742Z,17.08
2019-04-23T09:07:56.704Z,17.04
2019-04-23T09:10:29.977Z,17.36
2019-04-23T09:13:10.802Z,17.33
2019-04-23T09:15:42.414Z,17.33
2019-04-23T09:18:13.073Z,17.47
2019-04-23T09:20:37.181Z,17.45
2019-04-23T09:23:18.566Z,17.62
2019-04-23T09:25:55.942Z,17.35
2019-04-23T09:31:17.312Z,17.34
2019-04-23T09:33:52.141Z,17.34
2019-04-23T09:36:27.852Z,17.75
2019-04-23T09:41:52.605Z,18.66
2019-04-23T09:44:56.616Z,18.17
2019-04-23T09:47:26.347Z,18.28
2019-04-23T09:50:08.701Z,18.13
2019-04-23T09:52:46.124Z,18.48
2019-04-23T09:55:22.121Z,18.14
2019-04-23T09:57:55.571Z,18.02
2019-04-23T10:00:34.612Z,18.13
2019-04-23T10:02:47.341Z,18.50
2019-04-23T10:05:22.076Z,17.99
2019-04-23T10:07:56.276Z,18.08
2019-04-23T10:10:20.579Z,18.32
2019-04-23T10:12:55.636Z,18.43
2019-04-23T10:15:34.968Z,18.79
2019-04-23T10:18:04.728Z,18.53
2019-04-23T10:20:38.634Z,18.95
2019-04-23T10:23:12.578Z,18.63
2019-04-23T10:25:47.868Z,18.51
2019-04-23T10:28:29.643Z,18.87
2019-04-23T10:31:04.773Z,18.61
2019-04-23T10:33:39.864Z,18.92
2019-04-23T10:36:17.887Z,18.63
2019-04-23T10:38:59.501Z,18.97
2019-04-23T10:41:25.788Z,19.03
2019-04-23T10:44:04.971Z,18.69
2019-04-23T10:47:12.157Z,19.06
2019-04-23T10:50:13.953Z,19.25
2019-04-23T10:52:30.495Z,18.94
2019-04-23T10:55:28.191Z,18.66
2019-04-23T11:00:59.570Z,19.43
2019-04-23T11:06:30.793Z,19.64
2019-04-23T11:09:16.084Z,19.83
2019-04-23T11:11:48.312Z,19.72
2019-04-23T11:14:23.151Z,19.72
2019-04-23T11:16:56.566Z,19.72
2019-04-23T11:19:39.928Z,19.71
2019-04-23T11:22:24.912Z,19.74
2019-04-23T11:24:42.097Z,19.51
2019-04-23T11:27:14.748Z,19.23
2019-04-23T11:29:50.504Z,19.53
2019-04-23T11:35:15.798Z,19.65
2019-04-23T11:37:54.674Z,19.72
2019-04-23T11:40:15.564Z,19.23
2019-04-23T11:42:52.901Z,19.78
2019-04-23T11:51:05.753Z,19.95
2019-04-23T11:55:49.411Z,20.14
2019-04-23T12:03:56.483Z,20.84
2019-04-23T12:06:33.247Z,20.84
2019-04-23T12:09:31.438Z,20.83
2019-04-23T12:17:20.314Z,20.75
2019-04-23T12:27:31.698Z,21.42
2019-04-23T12:35:17.751Z,21.84
2019-04-23T12:38:15.486Z,21.57
2019-04-23T12:40:43.189Z,21.46
2019-04-23T12:45:47.001Z,21.81
2019-04-23T12:48:42.109Z,22.18
2019-04-23T12:50:58.340Z,22.27
2019-04-23T12:53:45.618Z,22.67
2019-04-23T12:56:21.994Z,22.36
2019-04-23T12:58:45.255Z,21.52
2019-04-23T13:01:36.007Z,21.65
2019-04-23T13:04:00.139Z,22.06
2019-04-23T13:06:39.282Z,22.51
2019-04-23T13:09:21.797Z,22.38
2019-04-23T13:11:49.642Z,22.22
2019-04-23T13:14:25.204Z,22.38
2019-04-23T13:17:12.610Z,22.40
2019-04-23T13:24:48.759Z,22.11
2019-04-23T13:27:50.235Z,21.75
2019-04-23T13:32:52.212Z,21.51
2019-04-23T13:35:38.589Z,21.66
2019-04-23T13:40:59.677Z,22.11
2019-04-23T13:43:28.235Z,22.64
2019-04-23T13:48:18.360Z,22.70
2019-04-23T13:51:00.267Z,22.61
2019-04-23T13:53:42.683Z,22.48
2019-04-23T13:56:11.304Z,22.13
2019-04-23T13:58:44.406Z,22.33
2019-04-23T14:04:16.205Z,22.59
2019-04-23T14:06:36.182Z,22.20
2019-04-23T14:11:40.462Z,22.44
2019-04-23T14:14:25.249Z,22.33
2019-04-23T14:17:18.706Z,22.12
2019-04-23T14:19:23.314Z,21.88
2019-04-23T14:22:29.926Z,21.99
2019-04-23T14:27:24.472Z,21.96
2019-04-23T14:29:55.934Z,21.75
2019-04-23T14:32:30.868Z,22.02
2019-04-23T14:35:10.800Z,22.07
2019-04-23T14:37:57.800Z,21.93
2019-04-23T14:40:29.799Z,21.92
2019-04-23T14:43:04.284Z,22.20
2019-04-23T14:45:44.588Z,22.25
2019-04-23T14:48:08.946Z,21.98
2019-04-23T14:50:41.265Z,22.12
2019-04-23T14:53:18.352Z,21.95
2019-04-23T15:03:55.708Z,22.19
2019-04-23T15:06:31.569Z,22.18
2019-04-23T15:09:10.816Z,22.48
2019-04-23T15:11:40.935Z,22.61
2019-04-23T15:14:11.891Z,22.39
2019-04-23T15:16:46.058Z,22.46
2019-04-23T15:29:33.722Z,21.68
2019-04-23T15:32:31.630Z,21.77
2019-04-23T15:35:05.238Z,21.85
2019-04-23T15:38:14.198Z,21.65
2019-04-23T15:40:11.147Z,21.90
2019-04-23T15:42:51.393Z,21.97
2019-04-23T15:45:15.037Z,22.04
2019-04-23T15:47:56.510Z,22.07
2019-04-23T15:50:43.523Z,22.11
2019-04-23T15:53:11.266Z,22.09
2019-04-23T15:55:44.223Z,21.94
2019-04-23T15:58:30.005Z,21.90
2019-04-23T16:01:21.157Z,21.84
2019-04-23T16:03:24.459Z,21.66
2019-04-23T16:05:59.252Z,21.67
2019-04-23T16:14:22.745Z,21.77
2019-04-23T16:16:55.100Z,21.49
2019-04-23T16:19:43.969Z,21.57
2019-04-23T16:22:03.707Z,21.60
2019-04-23T16:24:43.270Z,21.50
2019-04-23T16:27:11.027Z,21.58
2019-04-23T16:30:07.069Z,21.59
2019-04-23T16:32:52.356Z,21.56
2019-04-23T16:38:10.556Z,21.50
2019-04-23T16:40:37.501Z,21.44
2019-04-23T16:43:08.699Z,21.50
2019-04-23T16:45:49.338Z,21.49
2019-04-23T16:48:35.288Z,21.50
2019-04-23T16:53:25.166Z,21.53
2019-04-23T16:56:13.407Z,21.54
2019-04-23T16:58:42.528Z,21.51
2019-04-23T17:04:09.862Z,21.25
2019-04-23T17:06:26.788Z,21.25
2019-04-23T17:08:57.763Z,21.31
2019-04-23T17:11:34.369Z,21.24
2019-04-23T17:14:13.465Z,21.20
2019-04-23T17:19:22.409Z,21.17
2019-04-23T17:22:00.013Z,21.15
2019-04-23T17:27:18.114Z,21.12
2019-04-23T17:29:44.158Z,20.99
2019-04-23T17:32:23.659Z,20.94
2019-04-23T17:35:11.654Z,20.97
2019-04-23T17:37:51.953Z,20.84
2019-04-23T17:43:01.740Z,20.66
2019-04-23T17:48:17.257Z,20.53
2019-04-23T17:50:56.721Z,20.46
2019-04-23T17:53:31.908Z,20.38
2019-04-23T17:56:20.172Z,20.30
2019-04-23T18:09:09.830Z,19.89
2019-04-23T18:11:52.620Z,19.82
2019-04-23T18:14:07.156Z,19.77
2019-04-23T18:19:16.856Z,19.63
2019-04-23T18:25:03.890Z,19.32
2019-04-23T18:27:40.608Z,19.17
2019-04-23T18:46:02.401Z,18.36
2019-04-23T18:48:44.203Z,18.40
2019-04-23T18:51:12.423Z,18.41
2019-04-23T18:59:00.905Z,18.31
2019-04-23T19:01:45.129Z,18.23
2019-04-23T19:04:19.776Z,18.24
2019-04-23T19:06:37.719Z,18.14
2019-04-23T19:12:19.736Z,17.86
2019-04-23T19:14:53.915Z,17.57
2019-04-23T19:17:48.273Z,17.57
2019-04-23T19:19:58.206Z,17.52
2019-04-23T19:22:28.089Z,17.35
2019-04-23T19:25:02.052Z,17.21
2019-04-23T19:27:40.469Z,17.26
2019-04-23T19:30:28.083Z,17.19
2019-04-23T19:32:54.295Z,17.18
2019-04-23T19:35:53.790Z,17.06
2019-04-23T19:43:19.926Z,17.13
2019-04-23T19:46:03.945Z,17.38
2019-04-23T19:48:42.478Z,16.92
2019-04-23T19:53:54.987Z,16.85
2019-04-23T19:56:20.200Z,16.94
2019-04-23T19:58:51.665Z,16.82
2019-04-23T20:01:29.667Z,16.76
2019-04-23T20:07:00.125Z,16.60
2019-04-23T20:14:26.136Z,16.56
2019-04-23T20:17:17.646Z,16.53
2019-04-23T20:19:37.379Z,16.37
2019-04-23T20:24:57.639Z,16.30
2019-04-23T20:27:23.474Z,16.34
2019-04-23T20:30:32.473Z,16.58
2019-04-23T20:35:30.763Z,16.48
2019-04-23T20:40:49.173Z,16.40
2019-04-23T20:43:32.438Z,16.39
2019-04-23T20:45:54.596Z,16.45
2019-04-23T20:48:27.344Z,16.27
2019-04-23T20:50:56.264Z,16.15
2019-04-23T20:53:42.968Z,16.02
2019-04-23T20:56:17.636Z,15.91
2019-04-23T20:58:55.627Z,15.91
2019-04-23T21:01:43.465Z,15.77
2019-04-23T21:04:35.229Z,15.58
2019-04-23T21:06:48.733Z,15.43
2019-04-23T21:09:33.419Z,15.48
2019-04-23T21:12:07.891Z,15.41
2019-04-23T21:14:48.754Z,15.30
2019-04-23T21:17:04.138Z,15.20
2019-04-23T21:19:52.588Z,15.21
2019-04-23T21:22:31.052Z,15.21
2019-04-23T21:24:51.482Z,15.20
2019-04-23T21:30:03.541Z,15.04
2019-04-23T21:32:51.457Z,15.02
2019-04-23T21:35:42.559Z,15.04
2019-04-23T21:38:00.420Z,15.00
2019-04-23T21:40:56.871Z,14.91
2019-04-23T21:43:10.654Z,15.11
2019-04-23T21:46:06.007Z,15.06
2019-04-23T21:48:33.889Z,15.00
2019-04-23T21:50:58.041Z,15.01
2019-04-23T21:53:34.625Z,14.94
2019-04-23T21:56:08.619Z,14.90
2019-04-23T22:01:27.820Z,14.91
2019-04-23T22:04:08.750Z,14.96
2019-04-23T22:06:37.193Z,15.10
2019-04-23T22:09:15.963Z,15.18
2019-04-23T22:17:01.581Z,15.22
2019-04-23T22:19:19.918Z,15.21
2019-04-23T22:21:59.145Z,15.18
2019-04-23T22:24:39.842Z,15.15
2019-04-23T22:27:10.161Z,15.14
2019-04-23T22:29:43.565Z,15.30
2019-04-23T22:32:20.111Z,16.03
2019-04-23T22:35:06.393Z,16.38
2019-04-23T22:37:32.409Z,16.34
2019-04-23T22:40:04.658Z,16.26
2019-04-23T22:43:01.250Z,16.10
2019-04-23T22:47:58.468Z,16.69
2019-04-23T22:50:29.552Z,16.82
2019-04-23T22:55:51.633Z,17.24
2019-04-23T22:58:09.676Z,17.15
2019-04-23T23:01:10.670Z,17.26
2019-04-23T23:03:33.735Z,17.32
2019-04-23T23:06:24.801Z,17.34
2019-04-23T23:09:02.589Z,17.34
2019-04-23T23:11:14.974Z,17.31
2019-04-23T23:14:09.657Z,17.27
2019-04-23T23:16:30.338Z,17.27
2019-04-23T23:19:14.797Z,17.22
2019-04-23T23:21:56.650Z,17.18
2019-04-23T23:29:27.702Z,16.84
2019-04-23T23:32:09.622Z,16.83
2019-04-23T23:34:57.568Z,16.69
2019-04-23T23:37:12.040Z,16.48
2019-04-23T23:40:00.022Z,16.29
2019-04-23T23:42:22.030Z,16.07
2019-04-23T23:45:15.480Z,15.90
2019-04-23T23:47:38.119Z,15.70
2019-04-23T23:50:19.596Z,15.54
2019-04-23T23:55:19.575Z,15.31
2019-04-23T23:58:07.340Z,15.12
